sensor_id;sensor_type;location;lat;lon;timestamp;P1;durP1;ratioP1;P2;durP2;ratioP2
31308;SDS011;17936;52.446;10.840;2022-09-21T00:01:17;9.35;;;2.22;;
31308;SDS011;17936;52.446;10.840;2022-09-21T00:03:45;5.43;;;2.35;;
31308;SDS011;17936;52.446;10.840;2022-09-21T00:06:13;7.28;;;2.45;;
31308;SDS011;17936;52.446;10.840;2022-09-21T00:08:40;4.68;;;2.42;;
31308;SDS011;17936;52.446;10.840;2022-09-21T00:11:06;8.85;;;2.97;;
31308;SDS011;17936;52.446;10.840;2022-09-21T00:13:35;12.43;;;4.20;;
31308;SDS011;17936;52.446;10.840;2022-09-21T00:16:03;11.45;;;3.97;;
31308;SDS011;17936;52.446;10.840;2022-09-21T00:18:29;6.07;;;2.78;;
31308;SDS011;17936;52.446;10.840;2022-09-21T00:20:55;9.15;;;3.28;;
31308;SDS011;17936;52.446;10.840;2022-09-21T00:23:20;6.00;;;2.88;;
31308;SDS011;17936;52.446;10.840;2022-09-21T00:25:47;8.30;;;3.03;;
31308;SDS011;17936;52.446;10.840;2022-09-21T00:28:12;7.53;;;2.72;;
31308;SDS011;17936;52.446;10.840;2022-09-21T00:30:38;10.88;;;2.35;;
31308;SDS011;17936;52.446;10.840;2022-09-21T00:33:03;6.00;;;2.38;;
31308;SDS011;17936;52.446;10.840;2022-09-21T00:35:29;5.68;;;2.13;;
31308;SDS011;17936;52.446;10.840;2022-09-21T00:37:54;6.55;;;1.95;;
31308;SDS011;17936;52.446;10.840;2022-09-21T00:40:20;5.57;;;2.47;;
31308;SDS011;17936;52.446;10.840;2022-09-21T00:42:45;4.95;;;2.13;;
31308;SDS011;17936;52.446;10.840;2022-09-21T00:45:11;6.75;;;2.80;;
31308;SDS011;17936;52.446;10.840;2022-09-21T00:47:45;6.03;;;2.72;;
31308;SDS011;17936;52.446;10.840;2022-09-21T00:50:14;8.60;;;3.10;;
31308;SDS011;17936;52.446;10.840;2022-09-21T00:52:43;8.50;;;3.55;;
31308;SDS011;17936;52.446;10.840;2022-09-21T00:57:44;7.18;;;3.20;;
31308;SDS011;17936;52.446;10.840;2022-09-21T01:00:13;8.55;;;3.10;;
31308;SDS011;17936;52.446;10.840;2022-09-21T01:02:39;5.00;;;2.50;;
31308;SDS011;17936;52.446;10.840;2022-09-21T01:05:05;8.05;;;3.10;;
31308;SDS011;17936;52.446;10.840;2022-09-21T01:07:33;7.03;;;3.20;;
31308;SDS011;17936;52.446;10.840;2022-09-21T01:10:08;8.38;;;3.05;;
31308;SDS011;17936;52.446;10.840;2022-09-21T01:15:44;7.63;;;2.80;;
31308;SDS011;17936;52.446;10.840;2022-09-21T01:18:26;7.45;;;3.03;;
31308;SDS011;17936;52.446;10.840;2022-09-21T01:21:32;8.80;;;2.50;;
31308;SDS011;17936;52.446;10.840;2022-09-21T01:32:19;4.25;;;2.42;;
31308;SDS011;17936;52.446;10.840;2022-09-21T01:34:57;6.85;;;2.40;;
31308;SDS011;17936;52.446;10.840;2022-09-21T01:37:31;4.72;;;2.33;;
31308;SDS011;17936;52.446;10.840;2022-09-21T01:40:03;8.32;;;2.60;;
31308;SDS011;17936;52.446;10.840;2022-09-21T01:42:40;5.15;;;2.47;;
31308;SDS011;17936;52.446;10.840;2022-09-21T01:45:09;10.43;;;2.72;;
31308;SDS011;17936;52.446;10.840;2022-09-21T01:47:40;7.13;;;2.95;;
31308;SDS011;17936;52.446;10.840;2022-09-21T01:50:07;8.40;;;3.25;;
31308;SDS011;17936;52.446;10.840;2022-09-21T01:55:42;7.18;;;2.83;;
31308;SDS011;17936;52.446;10.840;2022-09-21T02:01:09;8.30;;;3.00;;
31308;SDS011;17936;52.446;10.840;2022-09-21T02:03:40;4.63;;;2.70;;
31308;SDS011;17936;52.446;10.840;2022-09-21T02:06:12;6.15;;;2.75;;
31308;SDS011;17936;52.446;10.840;2022-09-21T02:08:38;4.55;;;2.78;;
31308;SDS011;17936;52.446;10.840;2022-09-21T02:11:05;6.88;;;2.60;;
31308;SDS011;17936;52.446;10.840;2022-09-21T02:13:32;7.40;;;2.88;;
31308;SDS011;17936;52.446;10.840;2022-09-21T02:18:35;10.75;;;2.88;;
31308;SDS011;17936;52.446;10.840;2022-09-21T02:21:22;7.43;;;3.30;;
31308;SDS011;17936;52.446;10.840;2022-09-21T02:26:33;5.68;;;3.28;;
31308;SDS011;17936;52.446;10.840;2022-09-21T02:29:17;7.50;;;3.42;;
31308;SDS011;17936;52.446;10.840;2022-09-21T02:37:10;5.28;;;3.55;;
31308;SDS011;17936;52.446;10.840;2022-09-21T02:39:46;8.52;;;3.40;;
31308;SDS011;17936;52.446;10.840;2022-09-21T02:42:15;11.50;;;3.42;;
31308;SDS011;17936;52.446;10.840;2022-09-21T02:44:46;6.63;;;3.35;;
31308;SDS011;17936;52.446;10.840;2022-09-21T02:47:26;6.53;;;3.25;;
31308;SDS011;17936;52.446;10.840;2022-09-21T02:50:02;10.38;;;3.42;;
31308;SDS011;17936;52.446;10.840;2022-09-21T02:52:32;8.20;;;3.53;;
31308;SDS011;17936;52.446;10.840;2022-09-21T02:54:59;8.77;;;3.00;;
31308;SDS011;17936;52.446;10.840;2022-09-21T02:57:26;9.85;;;3.45;;
31308;SDS011;17936;52.446;10.840;2022-09-21T02:59:52;12.80;;;4.07;;
31308;SDS011;17936;52.446;10.840;2022-09-21T03:02:18;6.55;;;3.75;;
31308;SDS011;17936;52.446;10.840;2022-09-21T03:04:45;9.80;;;3.80;;
31308;SDS011;17936;52.446;10.840;2022-09-21T03:07:15;10.63;;;4.35;;
31308;SDS011;17936;52.446;10.840;2022-09-21T03:09:41;9.65;;;4.00;;
31308;SDS011;17936;52.446;10.840;2022-09-21T03:12:07;6.60;;;3.67;;
31308;SDS011;17936;52.446;10.840;2022-09-21T03:14:33;8.95;;;4.03;;
31308;SDS011;17936;52.446;10.840;2022-09-21T03:16:58;9.77;;;3.97;;
31308;SDS011;17936;52.446;10.840;2022-09-21T03:19:24;6.20;;;3.88;;
31308;SDS011;17936;52.446;10.840;2022-09-21T03:21:50;8.68;;;4.03;;
31308;SDS011;17936;52.446;10.840;2022-09-21T03:24:15;10.18;;;4.18;;
31308;SDS011;17936;52.446;10.840;2022-09-21T03:27:01;10.10;;;3.83;;
31308;SDS011;17936;52.446;10.840;2022-09-21T03:29:27;11.57;;;4.65;;
31308;SDS011;17936;52.446;10.840;2022-09-21T03:31:52;13.18;;;5.03;;
31308;SDS011;17936;52.446;10.840;2022-09-21T03:34:19;10.50;;;4.75;;
31308;SDS011;17936;52.446;10.840;2022-09-21T03:36:45;15.20;;;6.50;;
31308;SDS011;17936;52.446;10.840;2022-09-21T03:39:12;11.43;;;5.70;;
31308;SDS011;17936;52.446;10.840;2022-09-21T03:41:38;9.40;;;5.72;;
31308;SDS011;17936;52.446;10.840;2022-09-21T03:44:03;9.93;;;5.60;;
31308;SDS011;17936;52.446;10.840;2022-09-21T03:46:29;10.55;;;6.22;;
31308;SDS011;17936;52.446;10.840;2022-09-21T03:48:54;14.82;;;6.47;;
31308;SDS011;17936;52.446;10.840;2022-09-21T03:51:20;14.35;;;6.43;;
31308;SDS011;17936;52.446;10.840;2022-09-21T03:53:46;12.35;;;6.38;;
31308;SDS011;17936;52.446;10.840;2022-09-21T03:56:11;10.80;;;6.50;;
31308;SDS011;17936;52.446;10.840;2022-09-21T03:58:37;10.30;;;6.18;;
31308;SDS011;17936;52.446;10.840;2022-09-21T04:01:02;14.18;;;7.00;;
31308;SDS011;17936;52.446;10.840;2022-09-21T04:03:28;13.35;;;6.60;;
31308;SDS011;17936;52.446;10.840;2022-09-21T04:05:54;13.25;;;6.45;;
31308;SDS011;17936;52.446;10.840;2022-09-21T04:08:20;11.43;;;6.82;;
31308;SDS011;17936;52.446;10.840;2022-09-21T04:10:45;16.05;;;7.22;;
31308;SDS011;17936;52.446;10.840;2022-09-21T04:13:10;11.05;;;7.13;;
31308;SDS011;17936;52.446;10.840;2022-09-21T04:15:37;13.00;;;6.80;;
31308;SDS011;17936;52.446;10.840;2022-09-21T04:18:03;16.58;;;7.65;;
31308;SDS011;17936;52.446;10.840;2022-09-21T04:20:29;12.63;;;7.50;;
31308;SDS011;17936;52.446;10.840;2022-09-21T04:22:54;18.08;;;7.80;;
31308;SDS011;17936;52.446;10.840;2022-09-21T04:25:20;14.98;;;7.32;;
31308;SDS011;17936;52.446;10.840;2022-09-21T04:27:45;14.65;;;7.35;;
31308;SDS011;17936;52.446;10.840;2022-09-21T04:30:11;14.70;;;7.80;;
31308;SDS011;17936;52.446;10.840;2022-09-21T04:32:40;13.65;;;8.05;;
31308;SDS011;17936;52.446;10.840;2022-09-21T04:35:06;17.38;;;8.32;;
31308;SDS011;17936;52.446;10.840;2022-09-21T04:37:32;17.88;;;8.80;;
31308;SDS011;17936;52.446;10.840;2022-09-21T04:39:58;19.83;;;8.07;;
31308;SDS011;17936;52.446;10.840;2022-09-21T04:42:23;12.90;;;7.60;;
31308;SDS011;17936;52.446;10.840;2022-09-21T04:44:49;17.70;;;8.15;;
31308;SDS011;17936;52.446;10.840;2022-09-21T04:47:15;14.52;;;8.00;;
31308;SDS011;17936;52.446;10.840;2022-09-21T04:49:40;16.33;;;7.72;;
31308;SDS011;17936;52.446;10.840;2022-09-21T04:52:06;18.50;;;8.20;;
31308;SDS011;17936;52.446;10.840;2022-09-21T04:54:32;13.32;;;7.80;;
31308;SDS011;17936;52.446;10.840;2022-09-21T04:56:57;14.02;;;8.30;;
31308;SDS011;17936;52.446;10.840;2022-09-21T04:59:22;19.60;;;7.20;;
31308;SDS011;17936;52.446;10.840;2022-09-21T05:01:48;17.20;;;8.05;;
31308;SDS011;17936;52.446;10.840;2022-09-21T05:04:14;11.60;;;7.15;;
31308;SDS011;17936;52.446;10.840;2022-09-21T05:06:39;19.48;;;8.18;;
31308;SDS011;17936;52.446;10.840;2022-09-21T05:09:05;18.02;;;7.47;;
31308;SDS011;17936;52.446;10.840;2022-09-21T05:11:49;10.05;;;6.47;;
31308;SDS011;17936;52.446;10.840;2022-09-21T05:14:15;31.23;;;7.13;;
31308;SDS011;17936;52.446;10.840;2022-09-21T05:16:40;11.20;;;7.30;;
31308;SDS011;17936;52.446;10.840;2022-09-21T05:19:06;12.35;;;7.20;;
31308;SDS011;17936;52.446;10.840;2022-09-21T05:21:31;20.33;;;7.50;;
31308;SDS011;17936;52.446;10.840;2022-09-21T05:23:57;15.02;;;7.28;;
31308;SDS011;17936;52.446;10.840;2022-09-21T05:26:23;15.18;;;8.25;;
31308;SDS011;17936;52.446;10.840;2022-09-21T05:28:49;16.65;;;7.32;;
31308;SDS011;17936;52.446;10.840;2022-09-21T05:33:58;13.45;;;7.60;;
31308;SDS011;17936;52.446;10.840;2022-09-21T05:36:35;11.05;;;6.82;;
31308;SDS011;17936;52.446;10.840;2022-09-21T05:39:14;10.13;;;6.97;;
31308;SDS011;17936;52.446;10.840;2022-09-21T05:41:39;13.73;;;7.28;;
31308;SDS011;17936;52.446;10.840;2022-09-21T05:44:05;14.30;;;7.10;;
31308;SDS011;17936;52.446;10.840;2022-09-21T05:46:46;10.15;;;6.88;;
31308;SDS011;17936;52.446;10.840;2022-09-21T05:49:35;13.25;;;6.97;;
31308;SDS011;17936;52.446;10.840;2022-09-21T05:52:23;10.40;;;7.13;;
31308;SDS011;17936;52.446;10.840;2022-09-21T05:55:06;12.98;;;7.47;;
31308;SDS011;17936;52.446;10.840;2022-09-21T06:00:53;22.20;;;6.97;;
31308;SDS011;17936;52.446;10.840;2022-09-21T06:03:36;10.40;;;7.00;;
31308;SDS011;17936;52.446;10.840;2022-09-21T06:06:06;13.80;;;7.15;;
31308;SDS011;17936;52.446;10.840;2022-09-21T06:08:32;13.18;;;7.47;;
31308;SDS011;17936;52.446;10.840;2022-09-21T06:10:59;17.10;;;7.10;;
31308;SDS011;17936;52.446;10.840;2022-09-21T06:13:24;12.18;;;7.38;;
31308;SDS011;17936;52.446;10.840;2022-09-21T06:15:50;18.83;;;8.05;;
31308;SDS011;17936;52.446;10.840;2022-09-21T06:18:16;11.98;;;7.15;;
31308;SDS011;17936;52.446;10.840;2022-09-21T06:20:42;14.20;;;8.02;;
31308;SDS011;17936;52.446;10.840;2022-09-21T06:23:08;13.15;;;7.03;;
31308;SDS011;17936;52.446;10.840;2022-09-21T06:25:36;17.30;;;6.97;;
31308;SDS011;17936;52.446;10.840;2022-09-21T06:28:02;13.13;;;6.47;;
31308;SDS011;17936;52.446;10.840;2022-09-21T06:30:38;10.20;;;6.45;;
31308;SDS011;17936;52.446;10.840;2022-09-21T06:33:06;12.32;;;6.35;;
31308;SDS011;17936;52.446;10.840;2022-09-21T06:35:32;11.25;;;5.72;;
31308;SDS011;17936;52.446;10.840;2022-09-21T06:38:00;16.75;;;6.22;;
31308;SDS011;17936;52.446;10.840;2022-09-21T06:40:27;8.07;;;6.03;;
31308;SDS011;17936;52.446;10.840;2022-09-21T06:42:54;10.25;;;6.15;;
31308;SDS011;17936;52.446;10.840;2022-09-21T06:45:21;12.20;;;6.22;;
31308;SDS011;17936;52.446;10.840;2022-09-21T06:47:46;9.98;;;5.75;;
31308;SDS011;17936;52.446;10.840;2022-09-21T06:50:12;16.50;;;6.38;;
31308;SDS011;17936;52.446;10.840;2022-09-21T06:52:38;8.77;;;5.32;;
31308;SDS011;17936;52.446;10.840;2022-09-21T06:55:04;10.30;;;5.95;;
31308;SDS011;17936;52.446;10.840;2022-09-21T06:57:30;11.75;;;6.32;;
31308;SDS011;17936;52.446;10.840;2022-09-21T06:59:56;10.15;;;5.72;;
31308;SDS011;17936;52.446;10.840;2022-09-21T07:02:21;9.93;;;6.18;;
31308;SDS011;17936;52.446;10.840;2022-09-21T07:04:46;9.35;;;5.70;;
31308;SDS011;17936;52.446;10.840;2022-09-21T07:07:12;9.48;;;5.43;;
31308;SDS011;17936;52.446;10.840;2022-09-21T07:09:37;9.35;;;6.20;;
31308;SDS011;17936;52.446;10.840;2022-09-21T07:12:03;12.38;;;5.60;;
31308;SDS011;17936;52.446;10.840;2022-09-21T07:14:31;11.13;;;5.75;;
31308;SDS011;17936;52.446;10.840;2022-09-21T07:16:57;12.65;;;6.40;;
31308;SDS011;17936;52.446;10.840;2022-09-21T07:19:23;8.38;;;5.85;;
31308;SDS011;17936;52.446;10.840;2022-09-21T07:21:49;11.60;;;5.75;;
31308;SDS011;17936;52.446;10.840;2022-09-21T07:24:17;9.00;;;6.20;;
31308;SDS011;17936;52.446;10.840;2022-09-21T07:26:42;11.98;;;6.30;;
31308;SDS011;17936;52.446;10.840;2022-09-21T07:29:08;10.02;;;5.43;;
31308;SDS011;17936;52.446;10.840;2022-09-21T07:31:33;11.77;;;6.32;;
31308;SDS011;17936;52.446;10.840;2022-09-21T07:33:59;9.75;;;5.72;;
31308;SDS011;17936;52.446;10.840;2022-09-21T07:36:24;15.07;;;6.70;;
31308;SDS011;17936;52.446;10.840;2022-09-21T07:38:50;12.57;;;7.85;;
31308;SDS011;17936;52.446;10.840;2022-09-21T07:41:16;12.38;;;8.25;;
31308;SDS011;17936;52.446;10.840;2022-09-21T07:43:41;14.05;;;7.90;;
31308;SDS011;17936;52.446;10.840;2022-09-21T07:46:07;12.95;;;7.55;;
31308;SDS011;17936;52.446;10.840;2022-09-21T07:48:36;12.93;;;8.25;;
31308;SDS011;17936;52.446;10.840;2022-09-21T07:51:04;16.27;;;7.68;;
31308;SDS011;17936;52.446;10.840;2022-09-21T07:53:31;13.52;;;8.13;;
31308;SDS011;17936;52.446;10.840;2022-09-21T07:56:04;12.95;;;7.85;;
31308;SDS011;17936;52.446;10.840;2022-09-21T07:58:31;15.48;;;7.82;;
31308;SDS011;17936;52.446;10.840;2022-09-21T08:01:16;18.13;;;8.13;;
31308;SDS011;17936;52.446;10.840;2022-09-21T08:03:42;12.02;;;7.70;;
31308;SDS011;17936;52.446;10.840;2022-09-21T08:06:08;13.68;;;7.22;;
31308;SDS011;17936;52.446;10.840;2022-09-21T08:08:33;18.13;;;7.20;;
31308;SDS011;17936;52.446;10.840;2022-09-21T08:11:03;12.15;;;6.68;;
31308;SDS011;17936;52.446;10.840;2022-09-21T08:13:29;11.82;;;5.82;;
31308;SDS011;17936;52.446;10.840;2022-09-21T08:15:58;17.60;;;6.47;;
31308;SDS011;17936;52.446;10.840;2022-09-21T08:18:24;10.43;;;6.68;;
31308;SDS011;17936;52.446;10.840;2022-09-21T08:20:53;15.45;;;5.88;;
31308;SDS011;17936;52.446;10.840;2022-09-21T08:23:23;11.82;;;5.97;;
31308;SDS011;17936;52.446;10.840;2022-09-21T08:25:56;23.75;;;6.38;;
31308;SDS011;17936;52.446;10.840;2022-09-21T08:28:30;12.57;;;6.32;;
31308;SDS011;17936;52.446;10.840;2022-09-21T08:30:59;11.23;;;5.70;;
31308;SDS011;17936;52.446;10.840;2022-09-21T08:33:25;10.93;;;5.78;;
31308;SDS011;17936;52.446;10.840;2022-09-21T08:35:52;14.57;;;5.75;;
31308;SDS011;17936;52.446;10.840;2022-09-21T08:38:18;14.07;;;6.10;;
31308;SDS011;17936;52.446;10.840;2022-09-21T08:40:44;11.45;;;5.85;;
31308;SDS011;17936;52.446;10.840;2022-09-21T08:43:10;10.02;;;5.68;;
31308;SDS011;17936;52.446;10.840;2022-09-21T08:45:43;7.82;;;4.93;;
31308;SDS011;17936;52.446;10.840;2022-09-21T08:48:13;9.27;;;5.38;;
31308;SDS011;17936;52.446;10.840;2022-09-21T08:50:53;8.77;;;5.40;;
31308;SDS011;17936;52.446;10.840;2022-09-21T08:53:24;8.90;;;4.72;;
31308;SDS011;17936;52.446;10.840;2022-09-21T08:55:57;11.07;;;5.47;;
31308;SDS011;17936;52.446;10.840;2022-09-21T08:58:23;8.55;;;5.10;;
31308;SDS011;17936;52.446;10.840;2022-09-21T09:04:05;11.30;;;5.55;;
31308;SDS011;17936;52.446;10.840;2022-09-21T09:06:39;11.85;;;5.65;;
31308;SDS011;17936;52.446;10.840;2022-09-21T09:09:40;10.85;;;5.28;;
31308;SDS011;17936;52.446;10.840;2022-09-21T09:15:09;7.35;;;4.22;;
31308;SDS011;17936;52.446;10.840;2022-09-21T09:18:00;10.60;;;4.80;;
31308;SDS011;17936;52.446;10.840;2022-09-21T09:20:30;407.92;;;24.25;;
31308;SDS011;17936;52.446;10.840;2022-09-21T09:23:21;9.85;;;5.18;;
31308;SDS011;17936;52.446;10.840;2022-09-21T09:25:55;10.93;;;4.25;;
31308;SDS011;17936;52.446;10.840;2022-09-21T09:29:21;10.50;;;4.43;;
31308;SDS011;17936;52.446;10.840;2022-09-21T09:31:44;5.18;;;3.03;;
31308;SDS011;17936;52.446;10.840;2022-09-21T09:34:11;9.25;;;3.80;;
31308;SDS011;17936;52.446;10.840;2022-09-21T09:36:46;6.40;;;2.63;;
31308;SDS011;17936;52.446;10.840;2022-09-21T09:39:18;5.07;;;2.53;;
31308;SDS011;17936;52.446;10.840;2022-09-21T09:44:28;8.93;;;2.75;;
31308;SDS011;17936;52.446;10.840;2022-09-21T09:50:01;2.20;;;1.52;;
31308;SDS011;17936;52.446;10.840;2022-09-21T09:52:29;3.42;;;1.77;;
31308;SDS011;17936;52.446;10.840;2022-09-21T09:54:57;5.57;;;1.73;;
31308;SDS011;17936;52.446;10.840;2022-09-21T09:57:26;4.15;;;1.65;;
31308;SDS011;17936;52.446;10.840;2022-09-21T09:59:54;4.25;;;2.03;;
31308;SDS011;17936;52.446;10.840;2022-09-21T10:02:44;11.40;;;1.80;;
31308;SDS011;17936;52.446;10.840;2022-09-21T10:05:33;5.50;;;1.52;;
31308;SDS011;17936;52.446;10.840;2022-09-21T10:08:02;4.90;;;1.23;;
31308;SDS011;17936;52.446;10.840;2022-09-21T10:13:09;4.70;;;1.00;;
31308;SDS011;17936;52.446;10.840;2022-09-21T10:15:44;1.23;;;0.80;;
31308;SDS011;17936;52.446;10.840;2022-09-21T10:21:43;2.65;;;1.05;;
31308;SDS011;17936;52.446;10.840;2022-09-21T10:23:46;2.10;;;1.20;;
31308;SDS011;17936;52.446;10.840;2022-09-21T10:26:14;3.17;;;1.30;;
31308;SDS011;17936;52.446;10.840;2022-09-21T10:28:56;1.85;;;0.75;;
31308;SDS011;17936;52.446;10.840;2022-09-21T10:31:23;2.10;;;0.93;;
31308;SDS011;17936;52.446;10.840;2022-09-21T10:34:15;1.67;;;0.57;;
31308;SDS011;17936;52.446;10.840;2022-09-21T10:36:40;2.55;;;1.20;;
31308;SDS011;17936;52.446;10.840;2022-09-21T10:39:20;2.63;;;0.73;;
31308;SDS011;17936;52.446;10.840;2022-09-21T10:41:51;1.00;;;0.43;;
31308;SDS011;17936;52.446;10.840;2022-09-21T10:44:20;2.00;;;0.50;;
31308;SDS011;17936;52.446;10.840;2022-09-21T10:46:47;2.20;;;0.50;;
31308;SDS011;17936;52.446;10.840;2022-09-21T10:49:16;1.10;;;0.50;;
31308;SDS011;17936;52.446;10.840;2022-09-21T10:51:45;0.88;;;0.50;;
31308;SDS011;17936;52.446;10.840;2022-09-21T10:54:15;3.80;;;0.60;;
31308;SDS011;17936;52.446;10.840;2022-09-21T10:56:51;1.10;;;0.32;;
31308;SDS011;17936;52.446;10.840;2022-09-21T10:59:25;1.58;;;0.30;;
31308;SDS011;17936;52.446;10.840;2022-09-21T11:01:52;1.17;;;0.40;;
31308;SDS011;17936;52.446;10.840;2022-09-21T11:04:30;1.27;;;0.55;;
31308;SDS011;17936;52.446;10.840;2022-09-21T11:12:54;2.20;;;0.32;;
31308;SDS011;17936;52.446;10.840;2022-09-21T11:15:35;3.25;;;1.00;;
31308;SDS011;17936;52.446;10.840;2022-09-21T11:20:53;3.45;;;0.73;;
31308;SDS011;17936;52.446;10.840;2022-09-21T11:29:18;1.52;;;0.40;;
31308;SDS011;17936;52.446;10.840;2022-09-21T11:31:59;2.60;;;0.93;;
31308;SDS011;17936;52.446;10.840;2022-09-21T11:34:54;0.73;;;0.30;;
31308;SDS011;17936;52.446;10.840;2022-09-21T11:37:28;0.88;;;0.57;;
31308;SDS011;17936;52.446;10.840;2022-09-21T11:48:44;2.22;;;0.82;;
31308;SDS011;17936;52.446;10.840;2022-09-21T11:51:29;1.65;;;0.65;;
31308;SDS011;17936;52.446;10.840;2022-09-21T11:54:41;0.60;;;0.40;;
31308;SDS011;17936;52.446;10.840;2022-09-21T11:57:24;2.28;;;0.57;;
31308;SDS011;17936;52.446;10.840;2022-09-21T12:00:09;5.20;;;0.55;;
31308;SDS011;17936;52.446;10.840;2022-09-21T12:08:12;2.38;;;0.60;;
31308;SDS011;17936;52.446;10.840;2022-09-21T12:11:13;1.42;;;0.38;;
31308;SDS011;17936;52.446;10.840;2022-09-21T12:13:52;2.60;;;0.40;;
31308;SDS011;17936;52.446;10.840;2022-09-21T12:16:35;3.15;;;0.55;;
31308;SDS011;17936;52.446;10.840;2022-09-21T12:22:01;1.38;;;0.38;;
31308;SDS011;17936;52.446;10.840;2022-09-21T12:24:49;2.40;;;0.65;;
31308;SDS011;17936;52.446;10.840;2022-09-21T12:27:27;1.67;;;0.50;;
31308;SDS011;17936;52.446;10.840;2022-09-21T12:29:59;0.88;;;0.22;;
31308;SDS011;17936;52.446;10.840;2022-09-21T12:35:13;2.45;;;0.60;;
31308;SDS011;17936;52.446;10.840;2022-09-21T12:37:47;1.13;;;0.60;;
31308;SDS011;17936;52.446;10.840;2022-09-21T12:40:20;0.93;;;0.40;;
31308;SDS011;17936;52.446;10.840;2022-09-21T12:46:07;1.02;;;0.40;;
31308;SDS011;17936;52.446;10.840;2022-09-21T12:48:53;0.85;;;0.43;;
31308;SDS011;17936;52.446;10.840;2022-09-21T12:51:28;1.65;;;0.50;;
31308;SDS011;17936;52.446;10.840;2022-09-21T12:53:57;1.90;;;0.45;;
31308;SDS011;17936;52.446;10.840;2022-09-21T12:56:32;3.75;;;0.60;;
31308;SDS011;17936;52.446;10.840;2022-09-21T13:07:23;4.68;;;1.00;;
31308;SDS011;17936;52.446;10.840;2022-09-21T13:12:42;1.58;;;0.57;;
31308;SDS011;17936;52.446;10.840;2022-09-21T13:15:11;4.65;;;0.88;;
31308;SDS011;17936;52.446;10.840;2022-09-21T13:17:41;2.50;;;0.85;;
31308;SDS011;17936;52.446;10.840;2022-09-21T13:20:40;3.25;;;0.50;;
31308;SDS011;17936;52.446;10.840;2022-09-21T13:23:00;2.15;;;0.82;;
31308;SDS011;17936;52.446;10.840;2022-09-21T13:25:26;1.10;;;0.40;;
31308;SDS011;17936;52.446;10.840;2022-09-21T13:27:58;2.28;;;0.57;;
31308;SDS011;17936;52.446;10.840;2022-09-21T13:30:39;2.78;;;0.65;;
31308;SDS011;17936;52.446;10.840;2022-09-21T13:35:54;4.35;;;0.80;;
31308;SDS011;17936;52.446;10.840;2022-09-21T13:43:46;6.65;;;0.73;;
31308;SDS011;17936;52.446;10.840;2022-09-21T13:51:34;12.07;;;0.50;;
31308;SDS011;17936;52.446;10.840;2022-09-21T13:54:26;1.55;;;0.50;;
31308;SDS011;17936;52.446;10.840;2022-09-21T13:56:59;0.63;;;0.38;;
31308;SDS011;17936;52.446;10.840;2022-09-21T13:59:45;1.42;;;0.60;;
31308;SDS011;17936;52.446;10.840;2022-09-21T14:02:30;1.60;;;0.70;;
31308;SDS011;17936;52.446;10.840;2022-09-21T14:05:07;5.05;;;0.75;;
31308;SDS011;17936;52.446;10.840;2022-09-21T14:08:16;2.83;;;0.50;;
31308;SDS011;17936;52.446;10.840;2022-09-21T14:10:50;1.05;;;0.50;;
31308;SDS011;17936;52.446;10.840;2022-09-21T14:13:27;1.85;;;0.50;;
31308;SDS011;17936;52.446;10.840;2022-09-21T14:19:02;2.13;;;0.60;;
31308;SDS011;17936;52.446;10.840;2022-09-21T14:29:57;2.67;;;0.50;;
31308;SDS011;17936;52.446;10.840;2022-09-21T14:32:45;1.98;;;0.65;;
31308;SDS011;17936;52.446;10.840;2022-09-21T14:35:29;2.53;;;0.50;;
31308;SDS011;17936;52.446;10.840;2022-09-21T14:38:06;2.05;;;0.70;;
31308;SDS011;17936;52.446;10.840;2022-09-21T14:40:44;1.77;;;0.65;;
31308;SDS011;17936;52.446;10.840;2022-09-21T14:43:20;8.93;;;2.20;;
31308;SDS011;17936;52.446;10.840;2022-09-21T14:46:07;0.70;;;0.65;;
31308;SDS011;17936;52.446;10.840;2022-09-21T14:51:21;3.75;;;0.88;;
31308;SDS011;17936;52.446;10.840;2022-09-21T15:12:14;3.30;;;0.65;;
31308;SDS011;17936;52.446;10.840;2022-09-21T15:14:54;1.25;;;0.70;;
31308;SDS011;17936;52.446;10.840;2022-09-21T15:17:28;1.63;;;0.50;;
31308;SDS011;17936;52.446;10.840;2022-09-21T15:19:58;2.45;;;0.65;;
31308;SDS011;17936;52.446;10.840;2022-09-21T15:22:25;1.48;;;0.45;;
31308;SDS011;17936;52.446;10.840;2022-09-21T15:24:52;3.60;;;0.70;;
31308;SDS011;17936;52.446;10.840;2022-09-21T15:27:20;1.90;;;0.50;;
31308;SDS011;17936;52.446;10.840;2022-09-21T15:29:48;2.83;;;0.73;;
31308;SDS011;17936;52.446;10.840;2022-09-21T15:35:02;2.10;;;0.75;;
31308;SDS011;17936;52.446;10.840;2022-09-21T15:37:41;2.00;;;0.60;;
31308;SDS011;17936;52.446;10.840;2022-09-21T15:40:20;1.63;;;0.80;;
31308;SDS011;17936;52.446;10.840;2022-09-21T15:45:47;3.80;;;1.67;;
31308;SDS011;17936;52.446;10.840;2022-09-21T15:48:18;3.55;;;2.60;;
31308;SDS011;17936;52.446;10.840;2022-09-21T15:50:52;5.57;;;3.45;;
31308;SDS011;17936;52.446;10.840;2022-09-21T15:53:24;4.53;;;2.78;;
31308;SDS011;17936;52.446;10.840;2022-09-21T15:55:54;3.75;;;2.13;;
31308;SDS011;17936;52.446;10.840;2022-09-21T16:03:35;1.25;;;0.90;;
31308;SDS011;17936;52.446;10.840;2022-09-21T16:06:16;3.60;;;1.27;;
31308;SDS011;17936;52.446;10.840;2022-09-21T16:08:48;5.03;;;1.77;;
31308;SDS011;17936;52.446;10.840;2022-09-21T16:11:15;4.28;;;2.60;;
31308;SDS011;17936;52.446;10.840;2022-09-21T16:13:46;4.90;;;2.58;;
31308;SDS011;17936;52.446;10.840;2022-09-21T16:17:04;6.80;;;2.65;;
31308;SDS011;17936;52.446;10.840;2022-09-21T16:19:43;4.70;;;2.53;;
31308;SDS011;17936;52.446;10.840;2022-09-21T16:25:12;6.10;;;1.80;;
31308;SDS011;17936;52.446;10.840;2022-09-21T16:27:56;3.28;;;1.58;;
31308;SDS011;17936;52.446;10.840;2022-09-21T16:30:37;3.13;;;1.60;;
31308;SDS011;17936;52.446;10.840;2022-09-21T16:35:58;7.38;;;1.67;;
31308;SDS011;17936;52.446;10.840;2022-09-21T16:38:28;7.70;;;1.95;;
31308;SDS011;17936;52.446;10.840;2022-09-21T16:40:54;6.00;;;2.03;;
31308;SDS011;17936;52.446;10.840;2022-09-21T16:43:20;5.68;;;3.45;;
31308;SDS011;17936;52.446;10.840;2022-09-21T16:45:48;5.05;;;3.83;;
31308;SDS011;17936;52.446;10.840;2022-09-21T16:48:13;3.97;;;3.00;;
31308;SDS011;17936;52.446;10.840;2022-09-21T16:50:39;4.85;;;2.45;;
31308;SDS011;17936;52.446;10.840;2022-09-21T16:53:07;7.25;;;3.13;;
31308;SDS011;17936;52.446;10.840;2022-09-21T16:55:32;4.68;;;3.03;;
31308;SDS011;17936;52.446;10.840;2022-09-21T16:57:58;7.35;;;3.08;;
31308;SDS011;17936;52.446;10.840;2022-09-21T17:00:25;6.15;;;3.22;;
31308;SDS011;17936;52.446;10.840;2022-09-21T17:02:55;8.13;;;3.00;;
31308;SDS011;17936;52.446;10.840;2022-09-21T17:05:20;5.70;;;3.20;;
31308;SDS011;17936;52.446;10.840;2022-09-21T17:07:55;6.03;;;2.67;;
31308;SDS011;17936;52.446;10.840;2022-09-21T17:10:22;8.00;;;4.45;;
31308;SDS011;17936;52.446;10.840;2022-09-21T17:12:53;8.68;;;3.97;;
31308;SDS011;17936;52.446;10.840;2022-09-21T17:15:21;12.52;;;4.13;;
31308;SDS011;17936;52.446;10.840;2022-09-21T17:17:48;6.60;;;3.53;;
31308;SDS011;17936;52.446;10.840;2022-09-21T17:20:30;6.47;;;3.47;;
31308;SDS011;17936;52.446;10.840;2022-09-21T17:22:58;9.00;;;3.47;;
31308;SDS011;17936;52.446;10.840;2022-09-21T17:25:25;6.35;;;3.65;;
31308;SDS011;17936;52.446;10.840;2022-09-21T17:27:52;5.70;;;3.50;;
31308;SDS011;17936;52.446;10.840;2022-09-21T17:30:17;7.18;;;3.53;;
31308;SDS011;17936;52.446;10.840;2022-09-21T17:32:44;4.65;;;2.80;;
31308;SDS011;17936;52.446;10.840;2022-09-21T17:35:28;5.13;;;2.95;;
31308;SDS011;17936;52.446;10.840;2022-09-21T17:38:03;5.40;;;2.55;;